createdAt,value
2023-05-14T00:01:58.554Z,70.80
2023-05-14T00:04:26.759Z,70.90
2023-05-14T00:06:54.888Z,71.10
2023-05-14T00:09:24.315Z,71.10
2023-05-14T00:11:52.581Z,71.20
2023-05-14T00:14:21.014Z,71.10
2023-05-14T00:16:49.092Z,71.00
2023-05-14T00:19:17.242Z,71.00
2023-05-14T00:21:45.362Z,70.90
2023-05-14T00:24:13.493Z,70.80
2023-05-14T00:26:42.944Z,70.90
2023-05-14T00:29:11.122Z,71.10
2023-05-14T00:31:39.251Z,70.90
2023-05-14T00:34:07.352Z,71.00
2023-05-14T00:36:35.411Z,71.20
2023-05-14T00:39:03.767Z,71.20
2023-05-14T00:41:31.857Z,71.30
2023-05-14T00:44:01.305Z,71.50
2023-05-14T00:46:29.660Z,71.70
2023-05-14T00:48:58.345Z,71.60
2023-05-14T00:51:26.797Z,71.70
2023-05-14T00:53:55.116Z,71.60
2023-05-14T00:56:23.462Z,71.50
2023-05-14T00:58:52.720Z,71.60
2023-05-14T01:01:22.335Z,71.70
2023-05-14T01:03:53.448Z,71.90
2023-05-14T01:06:30.145Z,71.90
2023-05-14T01:09:17.076Z,72.50
2023-05-14T01:11:56.619Z,72.40
2023-05-14T01:14:32.248Z,72.50
2023-05-14T01:17:06.168Z,72.30
2023-05-14T01:19:40.678Z,72.30
2023-05-14T01:22:10.356Z,72.40
2023-05-14T01:24:38.601Z,72.30
2023-05-14T01:27:18.533Z,72.10
2023-05-14T01:29:54.358Z,72.30
2023-05-14T01:32:25.692Z,72.40
2023-05-14T01:34:54.499Z,72.30
2023-05-14T01:37:24.727Z,72.00
2023-05-14T01:39:54.282Z,72.20
2023-05-14T01:42:22.606Z,72.20
2023-05-14T01:44:50.936Z,72.20
2023-05-14T01:47:19.022Z,72.30
2023-05-14T01:49:47.105Z,72.60
2023-05-14T01:52:15.300Z,72.80
2023-05-14T01:54:44.780Z,73.10
2023-05-14T01:57:12.889Z,73.40
2023-05-14T01:59:41.004Z,73.20
2023-05-14T02:02:09.142Z,73.20
2023-05-14T02:04:37.263Z,73.10
2023-05-14T02:07:05.593Z,73.00
2023-05-14T02:09:33.787Z,73.00
2023-05-14T02:12:03.263Z,73.00
2023-05-14T02:14:31.457Z,73.20
2023-05-14T02:16:59.676Z,73.10
2023-05-14T02:19:27.786Z,73.30
2023-05-14T02:21:55.858Z,73.30
2023-05-14T02:24:24.127Z,73.30
2023-05-14T02:26:52.195Z,73.30
2023-05-14T02:29:21.687Z,73.40
2023-05-14T02:31:49.916Z,73.50
2023-05-14T02:34:18.221Z,73.30
2023-05-14T02:36:46.378Z,74.00
2023-05-14T02:39:14.486Z,73.30
2023-05-14T02:41:42.565Z,73.30
2023-05-14T02:44:10.627Z,73.40
2023-05-14T02:46:40.236Z,73.50
2023-05-14T02:49:08.628Z,73.60
2023-05-14T02:51:36.763Z,73.50
2023-05-14T02:54:04.973Z,73.70
2023-05-14T02:56:33.052Z,73.70
2023-05-14T02:59:02.088Z,73.60
2023-05-14T03:01:30.662Z,73.70
2023-05-14T03:04:00.566Z,73.60
2023-05-14T03:06:28.705Z,73.80
2023-05-14T03:08:56.818Z,73.70
2023-05-14T03:11:25.011Z,73.70
2023-05-14T03:13:53.093Z,73.60
2023-05-14T03:16:21.219Z,73.70
2023-05-14T03:18:49.366Z,73.70
2023-05-14T03:21:18.934Z,74.00
2023-05-14T03:23:47.093Z,74.50
2023-05-14T03:26:15.242Z,74.40
2023-05-14T03:28:43.398Z,74.50
2023-05-14T03:31:11.652Z,74.40
2023-05-14T03:33:39.863Z,74.20
2023-05-14T03:36:08.132Z,74.10
2023-05-14T03:38:37.774Z,74.20
2023-05-14T03:41:05.877Z,74.50
2023-05-14T03:43:34.344Z,74.50
2023-05-14T03:46:02.433Z,74.50
2023-05-14T03:48:30.646Z,74.30
2023-05-14T03:50:58.969Z,74.50
2023-05-14T03:53:27.043Z,74.60
2023-05-14T03:55:56.803Z,74.60
2023-05-14T03:58:24.884Z,74.90
2023-05-14T04:00:53.081Z,74.80
2023-05-14T04:03:21.284Z,74.70
2023-05-14T04:05:49.516Z,74.60
2023-05-14T04:08:17.621Z,74.70
2023-05-14T04:10:45.737Z,74.90
2023-05-14T04:13:15.180Z,75.80
2023-05-14T04:15:43.285Z,75.40
2023-05-14T04:18:11.477Z,75.40
2023-05-14T04:20:40.513Z,75.40
2023-05-14T04:23:08.588Z,75.40
2023-05-14T04:25:36.869Z,75.40
2023-05-14T04:28:05.189Z,75.50
2023-05-14T04:30:34.650Z,75.50
2023-05-14T04:33:02.894Z,75.70
2023-05-14T04:35:31.071Z,75.60
2023-05-14T04:37:59.280Z,75.70
2023-05-14T04:40:27.575Z,75.80
2023-05-14T04:42:55.697Z,75.90
2023-05-14T04:45:23.808Z,75.90
2023-05-14T04:47:53.297Z,75.90
2023-05-14T04:50:21.941Z,76.00
2023-05-14T04:52:50.610Z,75.70
2023-05-14T04:55:18.689Z,75.60
2023-05-14T04:57:46.756Z,75.70
2023-05-14T05:00:15.761Z,75.70
2023-05-14T05:02:43.997Z,75.80
2023-05-14T05:05:13.498Z,75.70
2023-05-14T05:07:41.608Z,75.80
2023-05-14T05:10:10.573Z,75.70
2023-05-14T05:12:38.960Z,75.70
2023-05-14T05:15:09.428Z,75.60
2023-05-14T05:17:38.039Z,75.60
2023-05-14T05:20:09.637Z,75.50
2023-05-14T05:22:39.221Z,75.50
2023-05-14T05:25:09.100Z,75.40
2023-05-14T05:27:37.275Z,75.20
2023-05-14T05:30:06.453Z,75.10
2023-05-14T05:32:34.605Z,75.10
2023-05-14T05:35:05.212Z,74.90
2023-05-14T05:37:33.413Z,74.80
2023-05-14T05:40:02.894Z,74.80
2023-05-14T05:42:31.030Z,74.70
2023-05-14T05:44:59.109Z,74.50
2023-05-14T05:47:27.234Z,74.50
2023-05-14T05:49:55.311Z,74.50
2023-05-14T05:52:23.452Z,74.40
2023-05-14T05:54:51.557Z,74.50
2023-05-14T05:57:23.643Z,74.50
2023-05-14T05:59:53.129Z,74.70
2023-05-14T06:02:21.691Z,74.80
2023-05-14T06:04:49.983Z,74.90
2023-05-14T06:07:18.102Z,74.70
2023-05-14T06:09:46.146Z,74.60
2023-05-14T06:12:14.251Z,74.20
2023-05-14T06:14:43.808Z,73.90
2023-05-14T06:17:11.941Z,73.80
2023-05-14T06:19:40.057Z,73.50
2023-05-14T06:22:08.142Z,73.40
2023-05-14T06:24:36.638Z,73.30
2023-05-14T06:27:04.832Z,73.20
2023-05-14T06:29:32.933Z,73.20
2023-05-14T06:32:05.538Z,73.20
2023-05-14T06:34:34.258Z,73.20
2023-05-14T06:37:04.185Z,72.90
2023-05-14T06:39:32.358Z,72.40
2023-05-14T06:42:00.447Z,72.10
2023-05-14T06:44:28.886Z,72.00
2023-05-14T06:46:57.185Z,72.30
2023-05-14T06:49:26.595Z,72.40
2023-05-14T06:51:54.687Z,72.60
2023-05-14T06:54:22.766Z,72.40
2023-05-14T06:56:50.853Z,71.90
2023-05-14T06:59:19.042Z,71.70
2023-05-14T07:01:47.201Z,71.20
2023-05-14T07:04:15.462Z,71.60
2023-05-14T07:06:44.970Z,71.60
2023-05-14T07:09:13.314Z,71.10
2023-05-14T07:11:41.637Z,70.90
2023-05-14T07:14:09.736Z,70.90
2023-05-14T07:16:38.306Z,70.40
2023-05-14T07:19:06.422Z,70.00
2023-05-14T07:21:34.482Z,70.20
2023-05-14T07:24:03.936Z,70.10
2023-05-14T07:26:32.397Z,69.60
2023-05-14T07:29:00.545Z,69.20
2023-05-14T07:31:28.964Z,68.90
2023-05-14T07:33:57.486Z,68.80
2023-05-14T07:36:26.362Z,68.40
2023-05-14T07:38:54.553Z,68.20
2023-05-14T07:41:23.986Z,67.40
2023-05-14T07:43:52.081Z,67.00
2023-05-14T07:46:20.177Z,66.80
2023-05-14T07:48:48.282Z,66.70
2023-05-14T07:51:16.359Z,65.70
2023-05-14T07:53:44.490Z,65.20
2023-05-14T07:56:12.635Z,64.80
2023-05-14T07:58:42.345Z,64.40
2023-05-14T08:01:10.415Z,62.90
2023-05-14T08:03:38.586Z,63.90
2023-05-14T08:06:07.082Z,63.40
2023-05-14T08:08:35.211Z,63.30
2023-05-14T08:11:04.009Z,62.70
2023-05-14T08:13:32.165Z,62.40
2023-05-14T08:16:01.627Z,62.30
2023-05-14T08:18:29.736Z,61.60
2023-05-14T08:20:57.972Z,61.70
2023-05-14T08:23:26.638Z,61.30
2023-05-14T08:25:54.720Z,60.90
2023-05-14T08:28:22.853Z,60.60
2023-05-14T08:30:51.539Z,60.90
2023-05-14T08:33:21.102Z,60.10
2023-05-14T08:35:49.180Z,59.60
2023-05-14T08:38:17.272Z,59.50
2023-05-14T08:40:49.561Z,59.70
2023-05-14T08:43:25.797Z,58.40
2023-05-14T08:45:59.870Z,58.60
2023-05-14T08:48:33.492Z,58.70
2023-05-14T08:51:02.986Z,58.30
2023-05-14T08:53:32.278Z,58.70
2023-05-14T08:56:02.459Z,57.80
2023-05-14T08:58:30.605Z,57.50
2023-05-14T09:00:58.747Z,57.00
2023-05-14T09:03:27.374Z,57.20
2023-05-14T09:05:59.880Z,56.50
2023-05-14T09:08:28.413Z,56.20
2023-05-14T09:10:56.494Z,56.10
2023-05-14T09:13:26.908Z,56.00
2023-05-14T09:15:57.176Z,56.00
2023-05-14T09:18:26.014Z,56.20
2023-05-14T09:20:54.450Z,56.50
2023-05-14T09:23:26.630Z,56.40
2023-05-14T09:25:54.765Z,56.00
2023-05-14T09:28:28.028Z,56.40
2023-05-14T09:30:56.554Z,55.60
2023-05-14T09:33:29.058Z,56.00
2023-05-14T09:36:00.199Z,55.80
2023-05-14T09:38:33.133Z,55.60
2023-05-14T09:41:01.862Z,55.20
2023-05-14T09:43:29.981Z,55.40
2023-05-14T09:45:58.060Z,55.80
2023-05-14T09:48:26.818Z,55.80
2023-05-14T09:50:54.944Z,55.80
2023-05-14T09:53:23.063Z,55.70
2023-05-14T09:55:52.595Z,55.40
2023-05-14T09:58:20.799Z,55.40
2023-05-14T10:00:49.181Z,55.80
2023-05-14T10:03:19.964Z,56.40
2023-05-14T10:05:50.236Z,55.90
2023-05-14T10:08:26.727Z,56.30
2023-05-14T10:10:56.996Z,55.80
2023-05-14T10:13:30.786Z,56.10
2023-05-14T10:16:06.173Z,54.40
2023-05-14T10:18:41.347Z,53.60
2023-05-14T10:21:11.639Z,53.60
2023-05-14T10:23:40.606Z,53.50
2023-05-14T10:26:11.854Z,53.30
2023-05-14T10:28:40.215Z,51.80
2023-05-14T10:31:10.803Z,52.00
2023-05-14T10:33:50.197Z,51.70
2023-05-14T10:36:18.998Z,49.80
2023-05-14T10:38:47.953Z,49.60
2023-05-14T10:41:18.675Z,50.10
2023-05-14T10:43:46.737Z,50.60
2023-05-14T10:46:15.701Z,51.50
2023-05-14T10:48:44.691Z,51.40
2023-05-14T10:51:13.997Z,50.90
2023-05-14T10:53:43.939Z,51.00
2023-05-14T10:56:13.074Z,50.40
2023-05-14T10:58:44.453Z,50.30
2023-05-14T11:01:14.218Z,49.60
2023-05-14T11:03:44.885Z,50.20
2023-05-14T11:06:14.987Z,50.80
2023-05-14T11:08:43.883Z,51.00
2023-05-14T11:11:12.352Z,51.00
2023-05-14T11:13:40.486Z,51.00
2023-05-14T11:18:41.953Z,49.90
2023-05-14T11:21:10.339Z,50.20
2023-05-14T11:23:38.578Z,50.30
2023-05-14T11:26:06.857Z,50.40
2023-05-14T11:28:35.678Z,50.60
2023-05-14T11:31:05.663Z,50.70
2023-05-14T11:33:35.192Z,51.20
2023-05-14T11:36:04.290Z,50.10
2023-05-14T11:38:32.372Z,48.00
2023-05-14T11:41:01.110Z,47.60
2023-05-14T11:43:30.785Z,46.50
2023-05-14T11:45:58.985Z,46.80
2023-05-14T11:48:27.400Z,46.80
2023-05-14T11:50:56.845Z,47.10
2023-05-14T11:53:28.545Z,47.10
2023-05-14T11:55:57.808Z,46.90
2023-05-14T11:58:26.624Z,47.50
2023-05-14T12:00:56.977Z,48.70
2023-05-14T12:03:26.878Z,48.40
2023-05-14T12:06:00.806Z,48.00
2023-05-14T12:08:30.206Z,48.10
2023-05-14T12:11:00.111Z,48.40
2023-05-14T12:13:28.950Z,48.30
2023-05-14T12:15:59.025Z,48.20
2023-05-14T12:18:28.506Z,48.10
2023-05-14T12:20:56.792Z,48.50
2023-05-14T12:23:30.647Z,48.60
2023-05-14T12:26:03.838Z,47.60
2023-05-14T12:28:32.948Z,47.90
2023-05-14T12:31:01.965Z,48.40
2023-05-14T12:33:30.066Z,48.10
2023-05-14T12:36:07.384Z,47.90
2023-05-14T12:38:49.743Z,48.00
2023-05-14T12:41:18.231Z,48.20
2023-05-14T12:43:48.633Z,47.80
2023-05-14T12:46:17.138Z,47.40
2023-05-14T12:48:45.311Z,47.50
2023-05-14T12:51:13.530Z,47.50
2023-05-14T12:53:41.732Z,47.40
2023-05-14T12:56:11.498Z,48.00
2023-05-14T12:58:39.677Z,48.20
2023-05-14T13:01:07.812Z,47.90
2023-05-14T13:03:36.007Z,50.20
2023-05-14T13:06:04.185Z,50.90
2023-05-14T13:08:32.277Z,49.70
2023-05-14T13:11:00.381Z,50.70
2023-05-14T13:13:30.057Z,50.40
2023-05-14T13:15:58.276Z,51.90
2023-05-14T13:18:27.694Z,52.50
2023-05-14T13:20:55.865Z,54.60
2023-05-14T13:23:24.357Z,55.30
2023-05-14T13:25:52.527Z,56.50
2023-05-14T13:28:20.637Z,57.90
2023-05-14T13:31:07.380Z,58.40
2023-05-14T13:33:37.143Z,59.00
2023-05-14T13:36:05.917Z,58.10
2023-05-14T13:38:34.150Z,57.90
2023-05-14T13:41:03.039Z,58.10
2023-05-14T13:43:31.916Z,58.40
2023-05-14T13:46:02.309Z,59.60
2023-05-14T13:48:31.035Z,61.20
2023-05-14T13:50:59.340Z,61.40
2023-05-14T13:53:30.533Z,60.30
2023-05-14T13:56:00.866Z,60.50
2023-05-14T13:58:29.440Z,61.20
2023-05-14T14:00:57.709Z,58.10
2023-05-14T14:03:27.149Z,58.20
2023-05-14T14:05:55.528Z,56.90
2023-05-14T14:08:24.517Z,56.00
2023-05-14T14:10:55.185Z,54.70
2023-05-14T14:13:24.400Z,53.30
2023-05-14T14:15:52.926Z,54.00
2023-05-14T14:18:21.142Z,56.20
2023-05-14T14:20:50.865Z,57.50
2023-05-14T14:23:19.583Z,58.20
2023-05-14T14:25:47.740Z,58.60
2023-05-14T14:28:15.875Z,59.00
2023-05-14T14:30:44.203Z,59.80
2023-05-14T14:33:12.531Z,60.80
2023-05-14T14:35:40.716Z,61.00
2023-05-14T14:38:10.168Z,60.50
2023-05-14T14:40:46.175Z,60.90
2023-05-14T14:43:14.389Z,62.00
2023-05-14T14:45:42.864Z,62.80
2023-05-14T14:48:25.103Z,63.60
2023-05-14T14:50:53.680Z,65.60
2023-05-14T14:53:23.810Z,63.40
2023-05-14T14:55:52.266Z,63.90
2023-05-14T14:58:21.365Z,64.80
2023-05-14T15:00:50.388Z,65.70
2023-05-14T15:03:19.965Z,65.90
2023-05-14T15:05:48.198Z,65.80
2023-05-14T15:08:16.577Z,66.40
2023-05-14T15:10:46.462Z,66.40
2023-05-14T15:13:14.772Z,65.40
2023-05-14T15:15:42.986Z,65.80
2023-05-14T15:18:11.397Z,66.50
2023-05-14T15:20:39.621Z,66.80
2023-05-14T15:23:08.167Z,66.70
2023-05-14T15:25:36.947Z,67.20
2023-05-14T15:28:06.813Z,66.60
2023-05-14T15:30:35.095Z,67.50
2023-05-14T15:33:03.409Z,67.60
2023-05-14T15:35:31.561Z,68.30
2023-05-14T15:37:59.807Z,69.40
2023-05-14T15:40:28.286Z,69.80
2023-05-14T15:42:56.420Z,70.30
2023-05-14T15:45:26.024Z,70.00
2023-05-14T15:47:54.166Z,70.40
2023-05-14T15:50:22.961Z,70.90
2023-05-14T15:52:51.312Z,70.20
2023-05-14T15:55:19.669Z,69.70
2023-05-14T15:57:47.786Z,68.80
2023-05-14T16:00:16.574Z,68.90
2023-05-14T16:02:46.142Z,68.90
2023-05-14T16:05:15.279Z,69.30
2023-05-14T16:07:43.984Z,68.70
2023-05-14T16:10:12.613Z,69.00
2023-05-14T16:12:40.729Z,69.80
2023-05-14T16:15:10.005Z,70.20
2023-05-14T16:17:38.145Z,70.10
2023-05-14T16:20:09.621Z,70.00
2023-05-14T16:22:37.690Z,70.50
2023-05-14T16:25:06.580Z,70.00
2023-05-14T16:27:35.435Z,70.60
2023-05-14T16:30:04.445Z,70.80
2023-05-14T16:32:32.625Z,71.10
2023-05-14T16:35:02.589Z,70.80
2023-05-14T16:37:32.581Z,70.50
2023-05-14T16:40:00.655Z,71.00
2023-05-14T16:42:28.731Z,71.00
2023-05-14T16:44:56.834Z,70.60
2023-05-14T16:47:25.059Z,70.60
2023-05-14T16:49:53.189Z,71.00
2023-05-14T16:52:21.319Z,70.70
2023-05-14T16:54:50.896Z,70.60
2023-05-14T16:57:19.552Z,70.60
2023-05-14T16:59:47.782Z,70.50
2023-05-14T17:02:16.029Z,70.40
2023-05-14T17:04:44.426Z,70.00
2023-05-14T17:07:12.704Z,69.70
2023-05-14T17:09:41.330Z,69.50
2023-05-14T17:12:13.034Z,69.50
2023-05-14T17:14:41.109Z,69.40
2023-05-14T17:17:09.215Z,70.00
2023-05-14T17:19:37.311Z,69.40
2023-05-14T17:22:07.258Z,69.70
2023-05-14T17:24:36.465Z,69.90
2023-05-14T17:27:05.018Z,70.20
2023-05-14T17:29:34.519Z,70.10
2023-05-14T17:32:03.564Z,70.90
2023-05-14T17:34:31.835Z,70.10
2023-05-14T17:37:00.840Z,70.10
2023-05-14T17:39:29.147Z,70.20
2023-05-14T17:41:57.243Z,69.80
2023-05-14T17:44:25.419Z,69.50
2023-05-14T17:46:54.963Z,69.30
2023-05-14T17:49:23.055Z,69.20
2023-05-14T17:51:51.136Z,68.90
2023-05-14T17:54:19.211Z,69.10
2023-05-14T17:56:48.139Z,69.40
2023-05-14T17:59:16.254Z,70.00
2023-05-14T18:01:44.393Z,70.30
2023-05-14T18:04:14.866Z,70.50
2023-05-14T18:06:43.055Z,70.60
2023-05-14T18:09:11.143Z,70.60
2023-05-14T18:11:39.248Z,70.70
2023-05-14T18:14:07.331Z,71.00
2023-05-14T18:16:35.896Z,70.90
2023-05-14T18:19:04.076Z,70.80
2023-05-14T18:21:33.622Z,70.70
2023-05-14T18:24:01.842Z,70.90
2023-05-14T18:26:31.280Z,70.90
2023-05-14T18:29:01.057Z,70.80
2023-05-14T18:31:29.264Z,70.80
2023-05-14T18:33:57.381Z,70.80
2023-05-14T18:36:25.488Z,70.60
2023-05-14T18:38:54.951Z,70.70
2023-05-14T18:41:23.564Z,70.80
2023-05-14T18:43:51.640Z,70.70
2023-05-14T18:46:19.877Z,70.80
2023-05-14T18:48:48.008Z,70.90
2023-05-14T18:51:16.092Z,71.00
2023-05-14T18:53:44.185Z,71.20
2023-05-14T18:56:13.774Z,71.30
2023-05-14T18:58:42.334Z,71.30
2023-05-14T19:01:10.523Z,70.90
2023-05-14T19:03:38.723Z,71.10
2023-05-14T19:06:07.534Z,71.20
2023-05-14T19:08:35.891Z,71.10
2023-05-14T19:11:04.523Z,71.10
2023-05-14T19:13:34.089Z,71.20
2023-05-14T19:16:02.233Z,71.60
2023-05-14T19:18:30.462Z,71.50
2023-05-14T19:20:59.121Z,71.60
2023-05-14T19:23:27.244Z,71.60
2023-05-14T19:25:55.333Z,71.60
2023-05-14T19:28:23.493Z,71.50
2023-05-14T19:30:53.404Z,71.50
2023-05-14T19:33:21.663Z,71.80
2023-05-14T19:35:49.718Z,71.80
2023-05-14T19:38:17.828Z,71.90
2023-05-14T19:40:45.921Z,72.00
2023-05-14T19:43:14.026Z,72.00
2023-05-14T19:45:42.817Z,72.10
2023-05-14T19:48:13.733Z,72.10
2023-05-14T19:50:41.888Z,72.10
2023-05-14T19:53:10.060Z,72.20
2023-05-14T19:55:38.200Z,72.30
2023-05-14T19:58:06.315Z,72.20
2023-05-14T20:00:34.470Z,72.30
2023-05-14T20:03:02.724Z,72.50
2023-05-14T20:05:34.255Z,72.40
2023-05-14T20:08:03.850Z,72.50
2023-05-14T20:10:31.926Z,72.50
2023-05-14T20:13:00.029Z,72.50
2023-05-14T20:15:28.294Z,72.70
2023-05-14T20:17:56.477Z,72.90
2023-05-14T20:20:25.727Z,73.20
2023-05-14T20:22:55.484Z,73.30
2023-05-14T20:25:25.732Z,73.70
2023-05-14T20:27:54.730Z,73.50
2023-05-14T20:30:24.037Z,73.60
2023-05-14T20:32:52.463Z,73.80
2023-05-14T20:35:20.650Z,73.70
2023-05-14T20:37:49.491Z,73.90
2023-05-14T20:40:19.327Z,74.20
2023-05-14T20:42:47.463Z,74.30
2023-05-14T20:45:15.721Z,74.20
2023-05-14T20:47:43.856Z,74.10
2023-05-14T20:50:13.739Z,74.10
2023-05-14T20:52:41.965Z,74.00
2023-05-14T20:55:11.021Z,74.00
2023-05-14T20:57:40.964Z,74.20
2023-05-14T21:00:13.242Z,74.70
2023-05-14T21:02:41.577Z,74.90
2023-05-14T21:05:10.204Z,75.10
2023-05-14T21:07:39.458Z,75.40
2023-05-14T21:10:09.162Z,75.60
2023-05-14T21:12:37.491Z,76.00
2023-05-14T21:15:08.324Z,75.90
2023-05-14T21:17:36.499Z,76.10
2023-05-14T21:20:04.901Z,76.00
2023-05-14T21:22:33.061Z,76.20
2023-05-14T21:25:01.172Z,76.30
2023-05-14T21:27:29.620Z,76.30
2023-05-14T21:29:57.783Z,76.40
2023-05-14T21:32:27.671Z,76.50
2023-05-14T21:34:56.181Z,76.70
2023-05-14T21:37:24.337Z,76.60
2023-05-14T21:39:52.679Z,76.40
2023-05-14T21:42:21.477Z,76.20
2023-05-14T21:44:49.561Z,75.90
2023-05-14T21:47:17.766Z,75.70
2023-05-14T21:49:47.301Z,75.80
2023-05-14T21:52:15.452Z,76.00
2023-05-14T21:54:43.553Z,76.00
2023-05-14T21:57:11.699Z,76.20
2023-05-14T21:59:39.804Z,76.30
2023-05-14T22:02:08.900Z,76.40
2023-05-14T22:04:37.034Z,76.60
2023-05-14T22:07:06.641Z,76.30
2023-05-14T22:09:34.846Z,76.50
2023-05-14T22:12:02.920Z,76.30
2023-05-14T22:14:31.016Z,76.30
2023-05-14T22:16:59.302Z,76.40
2023-05-14T22:19:27.931Z,76.60
2023-05-14T22:21:56.097Z,76.70
2023-05-14T22:24:25.583Z,76.80
2023-05-14T22:26:53.677Z,76.90
2023-05-14T22:29:21.746Z,76.80
2023-05-14T22:31:49.894Z,76.70
2023-05-14T22:34:19.283Z,76.80
2023-05-14T22:36:47.426Z,76.90
2023-05-14T22:39:15.790Z,77.00
2023-05-14T22:41:45.808Z,77.10
2023-05-14T22:44:13.982Z,77.30
2023-05-14T22:46:42.757Z,76.70
2023-05-14T22:49:10.951Z,76.70
2023-05-14T22:51:39.063Z,77.00
2023-05-14T22:54:07.212Z,77.20
2023-05-14T22:56:35.544Z,77.40
2023-05-14T22:59:05.086Z,77.30
2023-05-14T23:01:33.264Z,77.10
2023-05-14T23:04:01.481Z,77.10
2023-05-14T23:06:30.733Z,77.40
2023-05-14T23:08:59.030Z,77.70
2023-05-14T23:11:27.488Z,77.90
2023-05-14T23:13:55.790Z,78.10
2023-05-14T23:16:25.964Z,78.20
2023-05-14T23:18:54.349Z,78.30
2023-05-14T23:21:23.134Z,78.00
2023-05-14T23:23:51.208Z,78.10
2023-05-14T23:26:19.370Z,78.10
2023-05-14T23:28:47.838Z,78.10
2023-05-14T23:31:15.997Z,78.00
2023-05-14T23:33:46.766Z,77.90
2023-05-14T23:36:14.930Z,77.80
2023-05-14T23:38:43.122Z,77.30
2023-05-14T23:41:11.291Z,76.90
2023-05-14T23:43:39.433Z,76.80
2023-05-14T23:46:08.740Z,77.50
2023-05-14T23:48:37.915Z,78.00
2023-05-14T23:51:07.526Z,78.50
2023-05-14T23:53:35.662Z,79.00
2023-05-14T23:56:03.758Z,79.00
2023-05-14T23:58:32.960Z,79.10
